sensor_id;sensor_type;location;lat;lon;timestamp;pressure;altitude;pressure_sealevel;temperature;humidity
74422;BME280;62856;51.446;8.360;2022-09-17T00:00:07;97334.31;;;8.86;100.00
74422;BME280;62856;51.446;8.360;2022-09-17T00:02:34;97327.34;;;8.85;100.00
74422;BME280;62856;51.446;8.360;2022-09-17T00:04:59;97320.00;;;8.91;100.00
74422;BME280;62856;51.446;8.360;2022-09-17T00:07:25;97334.09;;;8.83;100.00
74422;BME280;62856;51.446;8.360;2022-09-17T00:09:50;97337.28;;;8.85;100.00
74422;BME280;62856;51.446;8.360;2022-09-17T00:12:15;97335.09;;;8.87;100.00
74422;BME280;62856;51.446;8.360;2022-09-17T00:14:40;97330.50;;;8.87;100.00
74422;BME280;62856;51.446;8.360;2022-09-17T00:17:06;97332.13;;;8.88;100.00
74422;BME280;62856;51.446;8.360;2022-09-17T00:19:31;97339.38;;;8.88;100.00
74422;BME280;62856;51.446;8.360;2022-09-17T00:21:57;97332.94;;;8.89;100.00
74422;BME280;62856;51.446;8.360;2022-09-17T00:24:22;97343.09;;;8.92;100.00
74422;BME280;62856;51.446;8.360;2022-09-17T00:26:48;97342.06;;;8.88;100.00
74422;BME280;62856;51.446;8.360;2022-09-17T00:29:13;97343.69;;;8.89;100.00
74422;BME280;62856;51.446;8.360;2022-09-17T00:31:45;97334.81;;;8.88;100.00
74422;BME280;62856;51.446;8.360;2022-09-17T00:34:13;97338.88;;;8.86;100.00
74422;BME280;62856;51.446;8.360;2022-09-17T00:36:39;97338.88;;;8.86;100.00
74422;BME280;62856;51.446;8.360;2022-09-17T00:39:07;97346.16;;;8.85;100.00
74422;BME280;62856;51.446;8.360;2022-09-17T00:41:36;97343.47;;;8.85;100.00
74422;BME280;62856;51.446;8.360;2022-09-17T00:47:39;97353.63;;;8.88;100.00
74422;BME280;62856;51.446;8.360;2022-09-17T00:50:33;97344.41;;;8.94;100.00
74422;BME280;62856;51.446;8.360;2022-09-17T00:53:09;97347.66;;;8.91;100.00
74422;BME280;62856;51.446;8.360;2022-09-17T00:55:40;97352.38;;;8.81;100.00
74422;BME280;62856;51.446;8.360;2022-09-17T00:58:09;97341.84;;;8.84;100.00
74422;BME280;62856;51.446;8.360;2022-09-17T01:00:36;97343.47;;;8.85;100.00
74422;BME280;62856;51.446;8.360;2022-09-17T01:03:02;97349.56;;;8.91;100.00
74422;BME280;62856;51.446;8.360;2022-09-17T01:05:48;97357.91;;;8.89;100.00
74422;BME280;62856;51.446;8.360;2022-09-17T01:14:09;97358.94;;;8.93;100.00
74422;BME280;62856;51.446;8.360;2022-09-17T01:22:12;97358.84;;;8.98;100.00
74422;BME280;62856;51.446;8.360;2022-09-17T01:28:19;97371.00;;;8.96;100.00
74422;BME280;62856;51.446;8.360;2022-09-17T01:31:06;97373.38;;;8.97;100.00
74422;BME280;62856;51.446;8.360;2022-09-17T01:41:42;97362.72;;;8.92;100.00
74422;BME280;62856;51.446;8.360;2022-09-17T01:44:12;97366.19;;;8.93;100.00
74422;BME280;62856;51.446;8.360;2022-09-17T01:46:43;97368.72;;;8.84;100.00
74422;BME280;62856;51.446;8.360;2022-09-17T01:49:14;97368.94;;;8.88;100.00
74422;BME280;62856;51.446;8.360;2022-09-17T01:51:43;97370.91;;;8.82;100.00
74422;BME280;62856;51.446;8.360;2022-09-17T01:54:19;97369.16;;;8.91;100.00
74422;BME280;62856;51.446;8.360;2022-09-17T01:57:07;97372.44;;;8.88;100.00
74422;BME280;62856;51.446;8.360;2022-09-17T01:59:58;97380.94;;;8.95;100.00
74422;BME280;62856;51.446;8.360;2022-09-17T02:02:39;97372.44;;;8.88;100.00
74422;BME280;62856;51.446;8.360;2022-09-17T02:08:50;97370.44;;;8.75;100.00
74422;BME280;62856;51.446;8.360;2022-09-17T02:11:18;97369.44;;;8.71;100.00
74422;BME280;62856;51.446;8.360;2022-09-17T02:14:21;97381.41;;;8.79;100.00
74422;BME280;62856;51.446;8.360;2022-09-17T02:16:59;97378.81;;;8.74;100.00
74422;BME280;62856;51.446;8.360;2022-09-17T02:19:29;97385.53;;;8.71;100.00
74422;BME280;62856;51.446;8.360;2022-09-17T02:24:58;97384.03;;;8.65;100.00
74422;BME280;62856;51.446;8.360;2022-09-17T02:30:15;97386.72;;;8.65;100.00
74422;BME280;62856;51.446;8.360;2022-09-17T02:32:41;97394.25;;;8.63;100.00
74422;BME280;62856;51.446;8.360;2022-09-17T02:35:08;97385.16;;;8.59;100.00
74422;BME280;62856;51.446;8.360;2022-09-17T02:37:45;97394.47;;;8.67;100.00
74422;BME280;62856;51.446;8.360;2022-09-17T02:40:15;97388.88;;;8.63;100.00
74422;BME280;62856;51.446;8.360;2022-09-17T02:42:58;97398.53;;;8.64;100.00
74422;BME280;62856;51.446;8.360;2022-09-17T02:57:09;97397.56;;;8.55;100.00
74422;BME280;62856;51.446;8.360;2022-09-17T03:04:38;97406.72;;;8.54;100.00
74422;BME280;62856;51.446;8.360;2022-09-17T03:07:13;97387.41;;;8.52;100.00
74422;BME280;62856;51.446;8.360;2022-09-17T03:09:39;97392.25;;;8.50;100.00
74422;BME280;62856;51.446;8.360;2022-09-17T03:12:09;97384.25;;;8.45;100.00
74422;BME280;62856;51.446;8.360;2022-09-17T03:14:48;97394.13;;;8.50;100.00
74422;BME280;62856;51.446;8.360;2022-09-17T03:17:14;97388.91;;;8.40;100.00
74422;BME280;62856;51.446;8.360;2022-09-17T03:19:42;97384.44;;;8.30;100.00
74422;BME280;62856;51.446;8.360;2022-09-17T03:22:08;97391.13;;;8.33;100.00
74422;BME280;62856;51.446;8.360;2022-09-17T03:24:34;97398.31;;;8.37;100.00
74422;BME280;62856;51.446;8.360;2022-09-17T03:26:59;97407.50;;;8.31;100.00
74422;BME280;62856;51.446;8.360;2022-09-17T03:29:30;97404.03;;;8.31;100.00
74422;BME280;62856;51.446;8.360;2022-09-17T03:31:55;97403.22;;;8.30;100.00
74422;BME280;62856;51.446;8.360;2022-09-17T03:34:21;97393.06;;;8.22;100.00
74422;BME280;62856;51.446;8.360;2022-09-17T03:36:46;97399.72;;;8.30;100.00
74422;BME280;62856;51.446;8.360;2022-09-17T03:39:11;97402.69;;;8.28;100.00
74422;BME280;62856;51.446;8.360;2022-09-17T03:41:37;97410.19;;;8.31;100.00
74422;BME280;62856;51.446;8.360;2022-09-17T03:44:06;97419.91;;;8.27;100.00
74422;BME280;62856;51.446;8.360;2022-09-17T03:46:35;97402.81;;;8.13;100.00
74422;BME280;62856;51.446;8.360;2022-09-17T03:49:01;97413.28;;;8.14;100.00
74422;BME280;62856;51.446;8.360;2022-09-17T03:51:26;97415.47;;;8.12;100.00
74422;BME280;62856;51.446;8.360;2022-09-17T03:53:51;97422.88;;;8.20;100.00
74422;BME280;62856;51.446;8.360;2022-09-17T03:56:17;97417.03;;;8.13;100.00
74422;BME280;62856;51.446;8.360;2022-09-17T03:58:42;97411.91;;;8.17;100.00
74422;BME280;62856;51.446;8.360;2022-09-17T04:01:07;97416.75;;;8.15;100.00
74422;BME280;62856;51.446;8.360;2022-09-17T04:03:33;97413.84;;;8.11;100.00
74422;BME280;62856;51.446;8.360;2022-09-17T04:05:58;97425.34;;;8.17;100.00
74422;BME280;62856;51.446;8.360;2022-09-17T04:08:24;97421.88;;;8.11;100.00
74422;BME280;62856;51.446;8.360;2022-09-17T04:10:53;97409.03;;;8.08;100.00
74422;BME280;62856;51.446;8.360;2022-09-17T04:13:19;97409.50;;;8.15;100.00
74422;BME280;62856;51.446;8.360;2022-09-17T04:15:45;97426.88;;;8.28;100.00
74422;BME280;62856;51.446;8.360;2022-09-17T04:18:11;97431.22;;;8.19;100.00
74422;BME280;62856;51.446;8.360;2022-09-17T04:20:40;97443.56;;;8.25;100.00
74422;BME280;62856;51.446;8.360;2022-09-17T04:23:10;97437.16;;;8.16;100.00
74422;BME280;62856;51.446;8.360;2022-09-17T04:25:36;97425.38;;;8.12;100.00
74422;BME280;62856;51.446;8.360;2022-09-17T04:28:01;97428.59;;;8.14;100.00
74422;BME280;62856;51.446;8.360;2022-09-17T04:30:26;97435.31;;;8.11;100.00
74422;BME280;62856;51.446;8.360;2022-09-17T04:32:58;97434.78;;;8.09;100.00
74422;BME280;62856;51.446;8.360;2022-09-17T04:35:23;97434.28;;;8.07;100.00
74422;BME280;62856;51.446;8.360;2022-09-17T04:38:00;97433.19;;;8.08;100.00
74422;BME280;62856;51.446;8.360;2022-09-17T04:40:26;97437.47;;;8.09;100.00
74422;BME280;62856;51.446;8.360;2022-09-17T04:42:56;97442.00;;;8.14;100.00
74422;BME280;62856;51.446;8.360;2022-09-17T04:45:24;97450.31;;;8.17;100.00
74422;BME280;62856;51.446;8.360;2022-09-17T04:47:50;97439.31;;;8.14;100.00
74422;BME280;62856;51.446;8.360;2022-09-17T04:50:19;97452.47;;;8.15;100.00
74422;BME280;62856;51.446;8.360;2022-09-17T04:52:45;97443.59;;;8.15;100.00
74422;BME280;62856;51.446;8.360;2022-09-17T04:55:11;97442.84;;;8.09;100.00
74422;BME280;62856;51.446;8.360;2022-09-17T04:57:47;97443.59;;;8.15;100.00
74422;BME280;62856;51.446;8.360;2022-09-17T05:00:13;97452.97;;;8.17;100.00
74422;BME280;62856;51.446;8.360;2022-09-17T05:02:39;97460.19;;;8.22;100.00
74422;BME280;62856;51.446;8.360;2022-09-17T05:05:04;97463.72;;;8.17;100.00
74422;BME280;62856;51.446;8.360;2022-09-17T05:07:33;97454.69;;;8.08;100.00
74422;BME280;62856;51.446;8.360;2022-09-17T05:09:58;97464.09;;;8.06;100.00
74422;BME280;62856;51.446;8.360;2022-09-17T05:12:34;97452.88;;;7.99;100.00
74422;BME280;62856;51.446;8.360;2022-09-17T05:15:09;97450.75;;;7.96;100.00
74422;BME280;62856;51.446;8.360;2022-09-17T05:17:36;97458.28;;;7.94;100.00
74422;BME280;62856;51.446;8.360;2022-09-17T05:20:02;97456.16;;;7.91;100.00
74422;BME280;62856;51.446;8.360;2022-09-17T05:22:27;97461.03;;;7.89;100.00
74422;BME280;62856;51.446;8.360;2022-09-17T05:24:52;97464.72;;;7.93;100.00
74422;BME280;62856;51.446;8.360;2022-09-17T05:27:18;97466.66;;;7.87;100.00
74422;BME280;62856;51.446;8.360;2022-09-17T05:29:43;97461.78;;;7.94;100.00
74422;BME280;62856;51.446;8.360;2022-09-17T05:32:09;97469.25;;;7.97;100.00
74422;BME280;62856;51.446;8.360;2022-09-17T05:34:34;97465.47;;;8.03;100.00
74422;BME280;62856;51.446;8.360;2022-09-17T05:37:00;97471.91;;;8.02;100.00
74422;BME280;62856;51.446;8.360;2022-09-17T05:39:25;97471.06;;;8.07;100.00
74422;BME280;62856;51.446;8.360;2022-09-17T05:41:51;97474.28;;;8.09;100.00
74422;BME280;62856;51.446;8.360;2022-09-17T05:44:17;97477.97;;;8.13;100.00
74422;BME280;62856;51.446;8.360;2022-09-17T05:46:43;97478.25;;;8.11;100.00
74422;BME280;62856;51.446;8.360;2022-09-17T05:49:08;97479.59;;;8.14;100.00
74422;BME280;62856;51.446;8.360;2022-09-17T05:51:34;97482.22;;;8.19;100.00
74422;BME280;62856;51.446;8.360;2022-09-17T05:53:59;97488.94;;;8.21;100.00
74422;BME280;62856;51.446;8.360;2022-09-17T05:56:27;97488.66;;;8.23;100.00
74422;BME280;62856;51.446;8.360;2022-09-17T05:58:56;97485.97;;;8.23;100.00
74422;BME280;62856;51.446;8.360;2022-09-17T06:01:22;97491.81;;;8.30;100.00
74422;BME280;62856;51.446;8.360;2022-09-17T06:03:47;97508.69;;;8.36;100.00
74422;BME280;62856;51.446;8.360;2022-09-17T06:06:16;97487.53;;;8.29;100.00
74422;BME280;62856;51.446;8.360;2022-09-17T06:08:41;97503.63;;;8.34;100.00
74422;BME280;62856;51.446;8.360;2022-09-17T06:11:07;97509.50;;;8.36;100.00
74422;BME280;62856;51.446;8.360;2022-09-17T06:13:33;97511.38;;;8.36;100.00
74422;BME280;62856;51.446;8.360;2022-09-17T06:15:59;97511.94;;;8.33;100.00
74422;BME280;62856;51.446;8.360;2022-09-17T06:18:28;97516.47;;;8.37;100.00
74422;BME280;62856;51.446;8.360;2022-09-17T06:20:54;97516.66;;;8.46;100.00
74422;BME280;62856;51.446;8.360;2022-09-17T06:23:20;97513.19;;;8.40;100.00
74422;BME280;62856;51.446;8.360;2022-09-17T06:25:58;97514.25;;;8.44;100.00
74422;BME280;62856;51.446;8.360;2022-09-17T06:28:25;97513.19;;;8.45;100.00
74422;BME280;62856;51.446;8.360;2022-09-17T06:30:50;97513.69;;;8.47;100.00
74422;BME280;62856;51.446;8.360;2022-09-17T06:33:21;97520.31;;;8.55;100.00
74422;BME280;62856;51.446;8.360;2022-09-17T06:35:46;97511.78;;;8.53;100.00
74422;BME280;62856;51.446;8.360;2022-09-17T06:38:12;97527.53;;;8.59;100.00
74422;BME280;62856;51.446;8.360;2022-09-17T06:40:37;97530.97;;;8.65;100.00
74422;BME280;62856;51.446;8.360;2022-09-17T06:43:03;97524.28;;;8.62;100.00
74422;BME280;62856;51.446;8.360;2022-09-17T06:45:29;97527.50;;;8.64;100.00
74422;BME280;62856;51.446;8.360;2022-09-17T06:47:54;97518.34;;;8.65;100.00
74422;BME280;62856;51.446;8.360;2022-09-17T06:50:20;97528.00;;;8.66;100.00
74422;BME280;62856;51.446;8.360;2022-09-17T06:52:51;97531.03;;;8.60;100.00
74422;BME280;62856;51.446;8.360;2022-09-17T06:55:20;97528.59;;;8.58;100.00
74422;BME280;62856;51.446;8.360;2022-09-17T06:57:45;97526.50;;;8.55;100.00
74422;BME280;62856;51.446;8.360;2022-09-17T07:00:12;97523.09;;;8.73;100.00
74422;BME280;62856;51.446;8.360;2022-09-17T07:02:38;97521.75;;;8.76;100.00
74422;BME280;62856;51.446;8.360;2022-09-17T07:05:03;97520.03;;;8.85;100.00
74422;BME280;62856;51.446;8.360;2022-09-17T07:07:29;97524.81;;;8.88;100.00
74422;BME280;62856;51.446;8.360;2022-09-17T07:09:54;97527.22;;;8.89;100.00
74422;BME280;62856;51.446;8.360;2022-09-17T07:12:20;97535.81;;;8.91;100.00
74422;BME280;62856;51.446;8.360;2022-09-17T07:14:46;97531.75;;;8.94;100.00
74422;BME280;62856;51.446;8.360;2022-09-17T07:17:14;97528.72;;;9.00;100.00
74422;BME280;62856;51.446;8.360;2022-09-17T07:19:40;97536.22;;;9.03;100.00
74422;BME280;62856;51.446;8.360;2022-09-17T07:22:05;97523.56;;;9.04;100.00
74422;BME280;62856;51.446;8.360;2022-09-17T07:24:31;97521.69;;;9.04;100.00
74422;BME280;62856;51.446;8.360;2022-09-17T07:26:57;97518.38;;;9.12;100.00
74422;BME280;62856;51.446;8.360;2022-09-17T07:29:25;97516.00;;;9.29;100.00
74422;BME280;62856;51.446;8.360;2022-09-17T07:32:00;97529.44;;;9.29;100.00
74422;BME280;62856;51.446;8.360;2022-09-17T07:34:27;97520.81;;;9.33;100.00
74422;BME280;62856;51.446;8.360;2022-09-17T07:36:53;97523.50;;;9.33;100.00
74422;BME280;62856;51.446;8.360;2022-09-17T07:39:18;97519.09;;;9.42;100.00
74422;BME280;62856;51.446;8.360;2022-09-17T07:41:43;97516.44;;;9.37;100.00
74422;BME280;62856;51.446;8.360;2022-09-17T07:44:09;97521.03;;;9.36;100.00
74422;BME280;62856;51.446;8.360;2022-09-17T07:46:34;97541.16;;;9.39;100.00
74422;BME280;62856;51.446;8.360;2022-09-17T07:49:00;97533.53;;;9.27;100.00
74422;BME280;62856;51.446;8.360;2022-09-17T07:51:26;97526.59;;;9.21;100.00
74422;BME280;62856;51.446;8.360;2022-09-17T07:53:57;97535.03;;;9.14;100.00
74422;BME280;62856;51.446;8.360;2022-09-17T07:56:23;97538.19;;;9.16;100.00
74422;BME280;62856;51.446;8.360;2022-09-17T07:58:50;97535.47;;;9.21;100.00
74422;BME280;62856;51.446;8.360;2022-09-17T08:01:16;97535.03;;;9.33;100.00
74422;BME280;62856;51.446;8.360;2022-09-17T08:03:46;97522.78;;;9.27;100.00
74422;BME280;62856;51.446;8.360;2022-09-17T08:06:16;97534.75;;;9.35;100.00
74422;BME280;62856;51.446;8.360;2022-09-17T08:08:42;97537.63;;;9.43;100.00
74422;BME280;62856;51.446;8.360;2022-09-17T08:11:10;97530.91;;;9.41;100.00
74422;BME280;62856;51.446;8.360;2022-09-17T08:13:36;97524.91;;;9.49;100.00
74422;BME280;62856;51.446;8.360;2022-09-17T08:16:05;97527.44;;;9.59;100.00
74422;BME280;62856;51.446;8.360;2022-09-17T08:18:41;97533.06;;;9.62;100.00
74422;BME280;62856;51.446;8.360;2022-09-17T08:21:10;97524.41;;;9.65;100.00
74422;BME280;62856;51.446;8.360;2022-09-17T08:23:43;97518.22;;;9.83;100.00
74422;BME280;62856;51.446;8.360;2022-09-17T08:26:13;97527.38;;;10.01;100.00
74422;BME280;62856;51.446;8.360;2022-09-17T08:28:49;97516.19;;;9.94;100.00
74422;BME280;62856;51.446;8.360;2022-09-17T08:31:17;97517.13;;;9.84;100.00
74422;BME280;62856;51.446;8.360;2022-09-17T08:33:43;97515.47;;;9.88;100.00
74422;BME280;62856;51.446;8.360;2022-09-17T08:36:13;97512.78;;;9.88;100.00
74422;BME280;62856;51.446;8.360;2022-09-17T08:38:39;97517.84;;;9.90;100.00
74422;BME280;62856;51.446;8.360;2022-09-17T08:46:01;97514.44;;;10.03;100.00
74422;BME280;62856;51.446;8.360;2022-09-17T08:48:41;97525.50;;;10.01;100.00
74422;BME280;62856;51.446;8.360;2022-09-17T08:51:23;97519.41;;;9.96;100.00
74422;BME280;62856;51.446;8.360;2022-09-17T08:54:22;97522.94;;;9.91;100.00
74422;BME280;62856;51.446;8.360;2022-09-17T08:56:48;97521.28;;;9.95;100.00
74422;BME280;62856;51.446;8.360;2022-09-17T08:59:26;97523.78;;;10.10;100.00
74422;BME280;62856;51.446;8.360;2022-09-17T09:01:57;97526.56;;;10.38;100.00
74422;BME280;62856;51.446;8.360;2022-09-17T09:07:17;97517.00;;;10.45;100.00
74422;BME280;62856;51.446;8.360;2022-09-17T09:09:48;97527.59;;;10.42;100.00
74422;BME280;62856;51.446;8.360;2022-09-17T09:12:23;97530.81;;;10.57;100.00
74422;BME280;62856;51.446;8.360;2022-09-17T09:17:16;97516.00;;;10.41;100.00
74422;BME280;62856;51.446;8.360;2022-09-17T09:19:49;97545.22;;;10.34;100.00
74422;BME280;62856;51.446;8.360;2022-09-17T09:22:28;97529.06;;;10.48;100.00
74422;BME280;62856;51.446;8.360;2022-09-17T09:25:23;97525.88;;;10.78;100.00
74422;BME280;62856;51.446;8.360;2022-09-17T09:28:13;97522.94;;;10.61;100.00
74422;BME280;62856;51.446;8.360;2022-09-17T09:33:24;97522.09;;;10.92;98.82
74422;BME280;62856;51.446;8.360;2022-09-17T09:35:50;97531.38;;;11.00;100.00
74422;BME280;62856;51.446;8.360;2022-09-17T09:44:31;97539.25;;;10.83;100.00
74422;BME280;62856;51.446;8.360;2022-09-17T09:58:05;97530.06;;;11.24;99.88
74422;BME280;62856;51.446;8.360;2022-09-17T10:00:37;97531.38;;;11.00;93.32
74422;BME280;62856;51.446;8.360;2022-09-17T10:03:24;97523.88;;;10.83;96.55
74422;BME280;62856;51.446;8.360;2022-09-17T10:06:00;97511.56;;;10.77;97.94
74422;BME280;62856;51.446;8.360;2022-09-17T10:08:28;97508.38;;;10.75;95.95
74422;BME280;62856;51.446;8.360;2022-09-17T10:10:58;97521.88;;;10.89;98.25
74422;BME280;62856;51.446;8.360;2022-09-17T10:13:25;97515.00;;;11.10;96.91
74422;BME280;62856;51.446;8.360;2022-09-17T10:15:56;97504.19;;;11.51;94.37
74422;BME280;62856;51.446;8.360;2022-09-17T10:18:25;97516.28;;;11.40;96.20
74422;BME280;62856;51.446;8.360;2022-09-17T10:20:58;97510.91;;;11.12;95.13
74422;BME280;62856;51.446;8.360;2022-09-17T10:23:35;97505.38;;;11.04;97.80
74422;BME280;62856;51.446;8.360;2022-09-17T10:26:02;97520.47;;;10.91;95.53
74422;BME280;62856;51.446;8.360;2022-09-17T10:28:47;97519.47;;;10.87;99.24
74422;BME280;62856;51.446;8.360;2022-09-17T10:34:30;97525.50;;;10.98;95.27
74422;BME280;62856;51.446;8.360;2022-09-17T10:37:33;97508.00;;;10.95;91.21
74422;BME280;62856;51.446;8.360;2022-09-17T10:42:48;97504.41;;;10.86;92.05
74422;BME280;62856;51.446;8.360;2022-09-17T10:45:25;97502.69;;;11.31;91.38
74422;BME280;62856;51.446;8.360;2022-09-17T10:48:01;97502.47;;;11.68;90.87
74422;BME280;62856;51.446;8.360;2022-09-17T10:50:30;97515.75;;;12.00;86.66
74422;BME280;62856;51.446;8.360;2022-09-17T10:53:00;97504.97;;;12.22;87.29
74422;BME280;62856;51.446;8.360;2022-09-17T10:56:02;97515.06;;;12.30;81.96
74422;BME280;62856;51.446;8.360;2022-09-17T11:02:29;97514.78;;;11.06;96.16
74422;BME280;62856;51.446;8.360;2022-09-17T11:08:50;97485.47;;;11.68;98.58
74422;BME280;62856;51.446;8.360;2022-09-17T11:11:54;97501.44;;;11.64;97.62
74422;BME280;62856;51.446;8.360;2022-09-17T11:14:50;97516.16;;;10.77;100.00
74422;BME280;62856;51.446;8.360;2022-09-17T11:37:24;97517.75;;;11.59;100.00
74422;BME280;62856;51.446;8.360;2022-09-17T11:42:46;97502.09;;;12.19;100.00
74422;BME280;62856;51.446;8.360;2022-09-17T11:45:14;97506.94;;;12.53;100.00
74422;BME280;62856;51.446;8.360;2022-09-17T11:47:48;97501.78;;;12.73;100.00
74422;BME280;62856;51.446;8.360;2022-09-17T11:50:23;97484.06;;;12.37;100.00
74422;BME280;62856;51.446;8.360;2022-09-17T11:56:35;97508.84;;;12.08;100.00
74422;BME280;62856;51.446;8.360;2022-09-17T12:01:54;97488.25;;;14.63;86.52
74422;BME280;62856;51.446;8.360;2022-09-17T12:05:00;97488.28;;;14.11;89.02
74422;BME280;62856;51.446;8.360;2022-09-17T12:12:58;97477.06;;;15.89;79.89
74422;BME280;62856;51.446;8.360;2022-09-17T12:15:34;97467.75;;;15.49;75.09
74422;BME280;62856;51.446;8.360;2022-09-17T12:20:53;97467.63;;;16.28;71.44
74422;BME280;62856;51.446;8.360;2022-09-17T12:23:41;97462.34;;;16.11;76.21
74422;BME280;62856;51.446;8.360;2022-09-17T12:29:13;97469.63;;;15.98;72.30
74422;BME280;62856;51.446;8.360;2022-09-17T12:40:17;97455.50;;;15.34;71.77
74422;BME280;62856;51.446;8.360;2022-09-17T12:51:13;97454.94;;;13.51;78.44
74422;BME280;62856;51.446;8.360;2022-09-17T13:00:23;97456.94;;;13.20;76.37
74422;BME280;62856;51.446;8.360;2022-09-17T13:05:48;97459.56;;;12.64;82.85
74422;BME280;62856;51.446;8.360;2022-09-17T13:08:44;97452.94;;;12.70;84.71
74422;BME280;62856;51.446;8.360;2022-09-17T13:16:59;97443.78;;;14.47;71.83
74422;BME280;62856;51.446;8.360;2022-09-17T13:19:50;97437.75;;;14.07;73.69
74422;BME280;62856;51.446;8.360;2022-09-17T13:22:28;97437.31;;;14.68;70.95
74422;BME280;62856;51.446;8.360;2022-09-17T13:25:04;97434.59;;;15.44;65.70
74422;BME280;62856;51.446;8.360;2022-09-17T13:27:33;97442.53;;;14.27;67.13
74422;BME280;62856;51.446;8.360;2022-09-17T13:30:05;97445.88;;;13.64;72.34
74422;BME280;62856;51.446;8.360;2022-09-17T13:37:32;97413.09;;;15.92;64.35
74422;BME280;62856;51.446;8.360;2022-09-17T13:40:00;97414.84;;;16.29;62.94
74422;BME280;62856;51.446;8.360;2022-09-17T13:42:41;97420.88;;;15.02;64.67
74422;BME280;62856;51.446;8.360;2022-09-17T13:45:15;97426.38;;;14.48;69.86
74422;BME280;62856;51.446;8.360;2022-09-17T13:54:08;97465.78;;;12.33;82.66
74422;BME280;62856;51.446;8.360;2022-09-17T13:56:47;97500.88;;;11.40;98.69
74422;BME280;62856;51.446;8.360;2022-09-17T13:59:18;97518.22;;;10.20;100.00
74422;BME280;62856;51.446;8.360;2022-09-17T14:02:27;97530.25;;;9.91;100.00
74422;BME280;62856;51.446;8.360;2022-09-17T14:05:22;97504.09;;;9.73;100.00
74422;BME280;62856;51.446;8.360;2022-09-17T14:08:09;97513.06;;;9.68;100.00
74422;BME280;62856;51.446;8.360;2022-09-17T14:10:40;97522.31;;;10.18;100.00
74422;BME280;62856;51.446;8.360;2022-09-17T14:30:11;97496.91;;;12.53;100.00
74422;BME280;62856;51.446;8.360;2022-09-17T14:32:38;97500.31;;;12.14;100.00
74422;BME280;62856;51.446;8.360;2022-09-17T14:35:15;97491.16;;;11.80;100.00
74422;BME280;62856;51.446;8.360;2022-09-17T14:37:55;97487.25;;;11.72;100.00
74422;BME280;62856;51.446;8.360;2022-09-17T14:40:31;97489.16;;;11.58;100.00
74422;BME280;62856;51.446;8.360;2022-09-17T14:43:21;97493.66;;;12.73;100.00
74422;BME280;62856;51.446;8.360;2022-09-17T14:46:04;97477.41;;;13.60;100.00
74422;BME280;62856;51.446;8.360;2022-09-17T14:51:39;97478.81;;;13.41;97.18
74422;BME280;62856;51.446;8.360;2022-09-17T14:54:07;97483.13;;;12.63;95.51
74422;BME280;62856;51.446;8.360;2022-09-17T15:05:00;97488.03;;;11.73;100.00
74422;BME280;62856;51.446;8.360;2022-09-17T15:07:26;97483.38;;;11.65;100.00
74422;BME280;62856;51.446;8.360;2022-09-17T15:09:52;97493.88;;;11.53;100.00
74422;BME280;62856;51.446;8.360;2022-09-17T15:12:23;97495.78;;;11.52;100.00
74422;BME280;62856;51.446;8.360;2022-09-17T15:14:53;97490.59;;;11.28;100.00
74422;BME280;62856;51.446;8.360;2022-09-17T15:17:21;97486.63;;;11.12;100.00
74422;BME280;62856;51.446;8.360;2022-09-17T15:19:51;97490.81;;;11.32;100.00
74422;BME280;62856;51.446;8.360;2022-09-17T15:22:38;97480.28;;;11.44;100.00
74422;BME280;62856;51.446;8.360;2022-09-17T15:25:22;97473.59;;;11.42;100.00
74422;BME280;62856;51.446;8.360;2022-09-17T15:27:54;97481.00;;;11.22;98.83
74422;BME280;62856;51.446;8.360;2022-09-17T15:30:26;97483.13;;;10.98;100.00
74422;BME280;62856;51.446;8.360;2022-09-17T15:32:54;97486.41;;;10.95;100.00
74422;BME280;62856;51.446;8.360;2022-09-17T15:35:25;97496.50;;;10.90;100.00
74422;BME280;62856;51.446;8.360;2022-09-17T15:37:59;97496.09;;;10.96;100.00
74422;BME280;62856;51.446;8.360;2022-09-17T15:40:38;97494.59;;;11.04;100.00
74422;BME280;62856;51.446;8.360;2022-09-17T15:43:32;97491.31;;;11.07;100.00
74422;BME280;62856;51.446;8.360;2022-09-17T15:48:47;97501.00;;;10.94;100.00
74422;BME280;62856;51.446;8.360;2022-09-17T15:51:30;97483.44;;;10.83;100.00
74422;BME280;62856;51.446;8.360;2022-09-17T15:53:58;97492.50;;;10.87;99.80
74422;BME280;62856;51.446;8.360;2022-09-17T15:56:28;97486.69;;;10.80;99.70
74422;BME280;62856;51.446;8.360;2022-09-17T15:58:59;97483.59;;;10.73;98.12
74422;BME280;62856;51.446;8.360;2022-09-17T16:04:26;97489.56;;;10.57;92.50
74422;BME280;62856;51.446;8.360;2022-09-17T16:06:59;97488.84;;;10.51;91.42
74422;BME280;62856;51.446;8.360;2022-09-17T16:09:47;97487.88;;;10.47;92.71
74422;BME280;62856;51.446;8.360;2022-09-17T16:12:22;97485.66;;;10.49;95.23
74422;BME280;62856;51.446;8.360;2022-09-17T16:14:52;97484.69;;;10.45;92.04
74422;BME280;62856;51.446;8.360;2022-09-17T16:17:25;97485.19;;;10.61;93.66
74422;BME280;62856;51.446;8.360;2022-09-17T16:20:19;97486.47;;;10.50;94.49
74422;BME280;62856;51.446;8.360;2022-09-17T16:22:44;97495.81;;;10.39;92.91
74422;BME280;62856;51.446;8.360;2022-09-17T16:25:13;97494.84;;;10.48;93.84
74422;BME280;62856;51.446;8.360;2022-09-17T16:28:02;97496.81;;;10.29;95.14
74422;BME280;62856;51.446;8.360;2022-09-17T16:30:30;97505.66;;;10.16;94.30
74422;BME280;62856;51.446;8.360;2022-09-17T16:32:56;97513.50;;;10.12;95.83
74422;BME280;62856;51.446;8.360;2022-09-17T16:35:26;97503.06;;;10.06;94.72
74422;BME280;62856;51.446;8.360;2022-09-17T16:37:55;97512.75;;;10.07;95.65
74422;BME280;62856;51.446;8.360;2022-09-17T16:40:26;97503.97;;;10.01;94.44
74422;BME280;62856;51.446;8.360;2022-09-17T16:42:58;97515.03;;;10.00;96.51
74422;BME280;62856;51.446;8.360;2022-09-17T16:45:24;97505.03;;;9.82;95.10
74422;BME280;62856;51.446;8.360;2022-09-17T16:47:52;97507.09;;;9.71;94.81
74422;BME280;62856;51.446;8.360;2022-09-17T16:50:17;97517.00;;;9.76;96.24
74422;BME280;62856;51.446;8.360;2022-09-17T16:52:47;97516.78;;;9.72;97.33
74422;BME280;62856;51.446;8.360;2022-09-17T16:55:14;97512.63;;;9.61;95.53